KEAU/EAU METAR and TAF weather

Enter ICAO airport designator
Station Type Date Time Source
KEAU METAR 2019/06/25 00:03 UTC NOAA

KEAU 250003Z 32011G19KT 10SM FEW021 SCT030 OVC055 18/13 A2960 RMK AO2 T01780133 $


Station Type Date Time Source
KEAU Decoded METAR 2019/06/25 00:03 UTC NOAA

EAU CLAIRE CHIPPEWA VALLEY, WI, United States (KEAU) 44-52N 091-29W
Jun 24, 2019 - 08:03 PM EDT / 2019.06.25 0003 UTC
Wind: from the NW (320 degrees) at 13 MPH (11 KT) gusting to 22 MPH (19 KT):0
Visibility: 10 mile(s):0
Sky conditions: overcast
Temperature: 64.0 F (17.8 C)
Dew Point: 55.9 F (13.3 C)
Relative Humidity: 74%
Pressure (altimeter): 29.6 in. Hg (1002 hPa)
ob: KEAU 250003Z 32011G19KT 10SM FEW021 SCT030 OVC055 18/13 A2960 RMK AO2 T01780133
cycle: 0

Station Type Date Time Source
KEAU TAF 2019/06/24 18:42 UTC NOAA

TAF KEAU 241738Z 2418/2518 27005KT P6SM VCSH SCT015 OVC025
FM242300 30008KT P6SM SCT025 BKN060
FM250200 29007KT P6SM SCT070
FM251500 24009KT P6SM FEW250

Example: see airport list